createdAt,value
2023-01-26T00:01:23.062Z,5.10
2023-01-26T00:03:51.201Z,5.73
2023-01-26T00:06:19.667Z,6.03
2023-01-26T00:08:48.205Z,7.00
2023-01-26T00:11:17.308Z,6.47
2023-01-26T00:13:44.999Z,5.40
2023-01-26T00:16:14.465Z,5.57
2023-01-26T00:18:45.258Z,6.33
2023-01-26T00:21:16.029Z,5.10
2023-01-26T00:23:43.547Z,5.40
2023-01-26T00:26:12.068Z,5.27
2023-01-26T00:28:40.072Z,4.63
2023-01-26T00:31:09.650Z,5.67
2023-01-26T00:33:37.335Z,6.83
2023-01-26T00:36:05.129Z,5.97
2023-01-26T00:38:32.566Z,5.03
2023-01-26T00:40:59.998Z,6.20
2023-01-26T00:43:27.469Z,5.20
2023-01-26T00:45:54.852Z,5.87
2023-01-26T00:48:24.793Z,4.97
2023-01-26T00:50:52.779Z,5.87
2023-01-26T00:53:20.550Z,6.57
2023-01-26T00:55:47.898Z,5.70
2023-01-26T00:58:15.359Z,5.40
2023-01-26T01:00:42.967Z,7.07
2023-01-26T01:03:13.992Z,4.90
2023-01-26T01:05:41.395Z,5.33
2023-01-26T01:08:08.785Z,5.53
2023-01-26T01:10:36.271Z,5.20
2023-01-26T01:13:03.680Z,6.27
2023-01-26T01:15:31.225Z,4.10
2023-01-26T01:17:58.570Z,5.73
2023-01-26T01:20:26.065Z,5.87
2023-01-26T01:22:53.408Z,5.90
2023-01-26T01:25:20.963Z,6.00
2023-01-26T01:27:48.365Z,5.13
2023-01-26T01:30:15.886Z,4.70
2023-01-26T01:32:44.917Z,4.97
2023-01-26T01:35:12.338Z,6.03
2023-01-26T01:37:39.899Z,5.83
2023-01-26T01:40:07.969Z,5.03
2023-01-26T01:42:35.333Z,6.77
2023-01-26T01:45:21.603Z,5.10
2023-01-26T01:47:49.144Z,5.67
2023-01-26T01:50:20.127Z,4.67
2023-01-26T01:52:48.060Z,5.73
2023-01-26T01:55:15.962Z,4.73
2023-01-26T01:57:54.570Z,4.73
2023-01-26T02:00:23.616Z,5.43
2023-01-26T02:03:10.967Z,5.13
2023-01-26T02:05:43.771Z,5.43
2023-01-26T02:08:12.183Z,6.23
2023-01-26T02:10:39.925Z,6.63
2023-01-26T02:13:07.669Z,6.00
2023-01-26T02:15:35.202Z,5.23
2023-01-26T02:18:04.213Z,5.30
2023-01-26T02:20:47.396Z,5.20
2023-01-26T02:23:33.658Z,5.10
2023-01-26T02:26:03.791Z,5.00
2023-01-26T02:28:31.299Z,5.23
2023-01-26T02:30:58.732Z,4.00
2023-01-26T02:33:28.446Z,5.10
2023-01-26T02:36:00.682Z,5.23
2023-01-26T02:38:31.925Z,5.50
2023-01-26T02:41:01.028Z,5.87
2023-01-26T02:43:29.616Z,5.27
2023-01-26T02:45:59.600Z,6.20
2023-01-26T02:48:46.584Z,4.70
2023-01-26T02:51:14.125Z,5.33
2023-01-26T02:53:41.677Z,5.23
2023-01-26T02:56:09.183Z,5.53
2023-01-26T02:58:36.753Z,5.40
2023-01-26T03:01:04.781Z,4.97
2023-01-26T03:03:45.649Z,5.80
2023-01-26T03:06:17.413Z,4.60
2023-01-26T03:08:44.801Z,4.93
2023-01-26T03:11:12.428Z,5.43
2023-01-26T03:13:40.532Z,5.50
2023-01-26T03:16:08.637Z,5.20
2023-01-26T03:18:55.271Z,4.43
2023-01-26T03:21:41.997Z,4.00
2023-01-26T03:24:32.271Z,4.30
2023-01-26T03:27:20.235Z,5.07
2023-01-26T03:29:47.713Z,4.13
2023-01-26T03:32:15.354Z,4.77
2023-01-26T03:34:43.374Z,5.27
2023-01-26T03:37:11.344Z,4.93
2023-01-26T03:40:03.920Z,4.80
2023-01-26T03:42:50.114Z,4.37
2023-01-26T03:45:36.242Z,4.07
2023-01-26T03:48:23.305Z,4.63
2023-01-26T03:51:09.611Z,5.07
2023-01-26T03:53:55.890Z,4.73
2023-01-26T03:56:32.432Z,4.30
2023-01-26T03:59:08.306Z,3.90
2023-01-26T04:01:37.558Z,4.33
2023-01-26T04:04:24.350Z,3.50
2023-01-26T04:07:11.050Z,5.33
2023-01-26T04:09:43.082Z,4.00
2023-01-26T04:12:14.355Z,4.70
2023-01-26T04:15:17.674Z,5.50
2023-01-26T04:18:03.546Z,6.43
2023-01-26T04:20:49.790Z,4.67
2023-01-26T04:23:21.210Z,4.10
2023-01-26T04:25:50.880Z,5.47
2023-01-26T04:28:19.083Z,4.17
2023-01-26T04:30:47.972Z,5.37
2023-01-26T04:33:15.302Z,4.93
2023-01-26T04:35:42.741Z,5.67
2023-01-26T04:38:10.258Z,5.27
2023-01-26T04:40:39.843Z,5.43
2023-01-26T04:43:07.143Z,4.03
2023-01-26T04:45:34.749Z,5.23
2023-01-26T04:48:04.488Z,4.40
2023-01-26T04:50:32.293Z,4.47
2023-01-26T04:53:00.068Z,4.33
2023-01-26T04:55:30.825Z,4.07
2023-01-26T04:57:59.168Z,4.70
2023-01-26T05:00:26.560Z,4.23
2023-01-26T05:02:54.901Z,4.67
2023-01-26T05:05:22.760Z,5.47
2023-01-26T05:07:50.889Z,4.67
2023-01-26T05:10:19.208Z,5.53
2023-01-26T05:13:15.711Z,4.67
2023-01-26T05:16:03.446Z,5.07
2023-01-26T05:19:00.084Z,3.47
2023-01-26T05:21:43.565Z,3.77
2023-01-26T05:24:11.838Z,3.67
2023-01-26T05:27:18.145Z,2.80
2023-01-26T05:29:51.561Z,4.33
2023-01-26T05:32:19.928Z,4.23
2023-01-26T05:34:48.155Z,3.23
2023-01-26T05:37:15.771Z,2.53
2023-01-26T05:39:48.288Z,3.40
2023-01-26T05:42:15.643Z,2.97
2023-01-26T05:45:09.309Z,2.67
2023-01-26T05:47:39.439Z,2.50
2023-01-26T05:50:07.612Z,2.00
2023-01-26T05:52:35.681Z,2.47
2023-01-26T05:55:03.684Z,3.03
2023-01-26T05:57:31.378Z,3.03
2023-01-26T06:00:05.059Z,2.07
2023-01-26T06:02:41.356Z,2.33
2023-01-26T06:05:11.763Z,2.10
2023-01-26T06:07:39.260Z,1.63
2023-01-26T06:10:16.653Z,2.00
2023-01-26T06:13:07.349Z,1.70
2023-01-26T06:15:53.083Z,1.70
2023-01-26T06:18:25.056Z,1.43
2023-01-26T06:20:54.692Z,1.83
2023-01-26T06:23:22.159Z,1.77
2023-01-26T06:25:51.797Z,2.20
2023-01-26T06:28:20.166Z,1.93
2023-01-26T06:30:47.843Z,1.63
2023-01-26T06:33:15.899Z,1.80
2023-01-26T06:35:43.520Z,1.93
2023-01-26T06:38:15.320Z,1.47
2023-01-26T06:40:42.784Z,1.83
2023-01-26T06:43:10.216Z,1.50
2023-01-26T06:45:37.581Z,1.50
2023-01-26T06:48:05.127Z,2.40
2023-01-26T06:50:34.076Z,1.20
2023-01-26T06:53:03.802Z,1.57
2023-01-26T06:55:53.712Z,1.63
2023-01-26T06:58:32.717Z,1.23
2023-01-26T07:01:20.259Z,1.30
2023-01-26T07:03:51.460Z,1.37
2023-01-26T07:06:19.040Z,1.50
2023-01-26T07:08:46.539Z,1.73
2023-01-26T07:11:17.396Z,1.47
2023-01-26T07:13:44.928Z,1.03
2023-01-26T07:16:14.208Z,1.83
2023-01-26T07:18:41.887Z,1.30
2023-01-26T07:21:13.971Z,1.20
2023-01-26T07:23:41.660Z,1.43
2023-01-26T07:26:09.227Z,1.30
2023-01-26T07:28:39.228Z,1.70
2023-01-26T07:31:08.308Z,1.50
2023-01-26T07:33:36.488Z,1.33
2023-01-26T07:36:04.297Z,1.10
2023-01-26T07:38:33.076Z,1.37
2023-01-26T07:41:05.040Z,1.60
2023-01-26T07:43:33.518Z,1.23
2023-01-26T07:46:01.295Z,1.27
2023-01-26T07:48:32.097Z,1.40
2023-01-26T07:51:00.819Z,1.37
2023-01-26T07:53:30.067Z,1.60
2023-01-26T07:56:07.659Z,1.33
2023-01-26T07:58:38.363Z,1.50
2023-01-26T08:01:13.846Z,1.30
2023-01-26T08:03:45.450Z,2.00
2023-01-26T08:06:15.403Z,1.27
2023-01-26T08:08:45.528Z,1.57
2023-01-26T08:11:15.235Z,1.40
2023-01-26T08:13:42.782Z,1.73
2023-01-26T08:16:12.527Z,1.63
2023-01-26T08:18:41.287Z,1.50
2023-01-26T08:21:11.896Z,1.20
2023-01-26T08:23:42.423Z,1.70
2023-01-26T08:26:13.636Z,1.73
2023-01-26T08:28:41.837Z,1.30
2023-01-26T08:31:11.589Z,1.90
2023-01-26T08:33:39.795Z,1.27
2023-01-26T08:36:08.286Z,1.10
2023-01-26T08:38:36.038Z,1.20
2023-01-26T08:41:03.951Z,2.10
2023-01-26T08:43:32.180Z,1.10
2023-01-26T08:46:02.270Z,1.87
2023-01-26T08:48:32.239Z,1.50
2023-01-26T08:51:02.877Z,1.27
2023-01-26T08:53:31.695Z,1.30
2023-01-26T08:56:02.499Z,1.20
2023-01-26T08:58:30.077Z,1.30
2023-01-26T09:01:01.323Z,1.23
2023-01-26T09:03:28.891Z,1.67
2023-01-26T09:06:00.794Z,1.33
2023-01-26T09:08:28.284Z,1.53
2023-01-26T09:10:56.846Z,1.27
2023-01-26T09:13:27.162Z,1.27
2023-01-26T09:16:00.602Z,1.20
2023-01-26T09:18:28.032Z,1.23
2023-01-26T09:21:02.822Z,1.30
2023-01-26T09:23:30.252Z,1.23
2023-01-26T09:26:01.016Z,1.37
2023-01-26T09:28:28.436Z,1.00
2023-01-26T09:30:56.174Z,1.50
2023-01-26T09:33:25.249Z,1.30
2023-01-26T09:35:58.031Z,1.47
2023-01-26T09:38:27.823Z,1.07
2023-01-26T09:40:58.674Z,1.30
2023-01-26T09:43:47.496Z,1.20
2023-01-26T09:46:32.678Z,1.80
2023-01-26T09:49:11.651Z,1.40
2023-01-26T09:52:00.655Z,1.13
2023-01-26T09:54:31.155Z,0.90
2023-01-26T09:57:00.897Z,1.10
2023-01-26T09:59:42.595Z,1.60
2023-01-26T10:02:21.900Z,1.40
2023-01-26T10:04:51.788Z,1.30
2023-01-26T10:07:27.652Z,1.10
2023-01-26T10:09:55.131Z,1.10
2023-01-26T10:12:34.770Z,1.23
2023-01-26T10:15:06.091Z,1.40
2023-01-26T10:17:48.459Z,1.20
2023-01-26T10:20:15.857Z,1.30
2023-01-26T10:22:48.496Z,1.30
2023-01-26T10:25:20.095Z,1.10
2023-01-26T10:27:50.942Z,1.20
2023-01-26T10:30:19.808Z,1.07
2023-01-26T10:32:48.745Z,1.40
2023-01-26T10:35:17.953Z,1.17
2023-01-26T10:37:45.614Z,1.23
2023-01-26T10:40:13.561Z,1.30
2023-01-26T10:42:41.537Z,1.30
2023-01-26T10:45:25.379Z,1.30
2023-01-26T10:48:06.790Z,1.27
2023-01-26T10:50:34.362Z,1.20
2023-01-26T10:53:02.963Z,1.23
2023-01-26T10:55:31.567Z,1.50
2023-01-26T10:58:02.140Z,1.23
2023-01-26T11:00:31.115Z,1.13
2023-01-26T11:03:01.675Z,1.07
2023-01-26T11:05:29.212Z,1.50
2023-01-26T11:08:07.202Z,1.10
2023-01-26T11:10:37.049Z,1.60
2023-01-26T11:13:10.214Z,1.17
2023-01-26T11:15:39.556Z,1.30
2023-01-26T11:18:23.253Z,0.83
2023-01-26T11:20:57.056Z,1.60
2023-01-26T11:23:24.367Z,0.97
2023-01-26T11:26:01.009Z,1.20
2023-01-26T11:28:47.465Z,1.10
2023-01-26T11:31:31.360Z,1.23
2023-01-26T11:34:18.119Z,1.10
2023-01-26T11:37:07.200Z,1.20
2023-01-26T11:39:41.359Z,1.23
2023-01-26T11:42:25.781Z,1.10
2023-01-26T11:44:59.183Z,1.10
2023-01-26T11:47:47.142Z,1.13
2023-01-26T11:50:17.861Z,1.20
2023-01-26T11:52:54.531Z,1.07
2023-01-26T11:55:32.307Z,1.17
2023-01-26T11:58:08.444Z,0.93
2023-01-26T12:00:41.636Z,1.23
2023-01-26T12:03:24.336Z,1.10
2023-01-26T12:05:54.797Z,1.23
2023-01-26T12:08:41.278Z,1.23
2023-01-26T12:11:24.073Z,1.03
2023-01-26T12:14:17.300Z,1.00
2023-01-26T12:16:58.036Z,1.30
2023-01-26T12:19:41.042Z,1.30
2023-01-26T12:22:14.861Z,1.20
2023-01-26T12:25:16.293Z,0.97
2023-01-26T12:27:35.957Z,1.37
2023-01-26T12:30:09.969Z,1.00
2023-01-26T12:32:37.520Z,1.13
2023-01-26T12:35:11.540Z,0.90
2023-01-26T12:37:47.821Z,1.00
2023-01-26T12:40:24.116Z,1.10
2023-01-26T12:43:00.811Z,1.17
2023-01-26T12:45:30.808Z,1.37
2023-01-26T12:48:10.953Z,0.90
2023-01-26T12:50:46.565Z,1.37
2023-01-26T12:53:30.204Z,1.37
2023-01-26T12:56:18.375Z,1.00
2023-01-26T12:58:47.408Z,1.20
2023-01-26T13:01:16.619Z,1.30
2023-01-26T13:03:49.275Z,1.43
2023-01-26T13:06:19.007Z,1.17
2023-01-26T13:08:55.949Z,1.07
2023-01-26T13:11:42.336Z,1.03
2023-01-26T13:14:30.325Z,1.20
2023-01-26T13:17:00.872Z,1.23
2023-01-26T13:19:34.369Z,1.00
2023-01-26T13:22:01.880Z,0.90
2023-01-26T13:24:35.531Z,1.20
2023-01-26T13:27:02.854Z,1.20
2023-01-26T13:29:31.956Z,1.13
2023-01-26T13:32:22.280Z,1.13
2023-01-26T13:35:09.491Z,1.17
2023-01-26T13:37:55.708Z,1.13
2023-01-26T13:40:35.939Z,0.93
2023-01-26T13:43:25.613Z,1.10
2023-01-26T13:45:59.980Z,1.33
2023-01-26T13:48:37.853Z,1.07
2023-01-26T13:51:05.490Z,1.27
2023-01-26T13:53:37.704Z,1.40
2023-01-26T13:56:07.209Z,0.90
2023-01-26T13:58:34.689Z,1.10
2023-01-26T14:01:06.225Z,1.00
2023-01-26T14:03:38.079Z,1.00
2023-01-26T14:06:09.063Z,1.13
2023-01-26T14:08:37.252Z,1.30
2023-01-26T14:11:06.062Z,1.00
2023-01-26T14:13:38.750Z,0.90
2023-01-26T14:16:07.573Z,1.50
2023-01-26T14:18:35.701Z,1.40
2023-01-26T14:21:07.855Z,1.50
2023-01-26T14:23:38.373Z,1.17
2023-01-26T14:26:15.062Z,1.17
2023-01-26T14:28:43.846Z,1.10
2023-01-26T14:31:16.263Z,1.00
2023-01-26T14:33:47.364Z,0.97
2023-01-26T14:36:16.904Z,0.90
2023-01-26T14:38:46.037Z,0.90
2023-01-26T14:41:16.394Z,1.10
2023-01-26T14:43:43.858Z,1.10
2023-01-26T14:46:15.693Z,0.90
2023-01-26T14:48:46.634Z,1.00
2023-01-26T14:51:20.162Z,0.97
2023-01-26T14:53:52.195Z,0.97
2023-01-26T14:56:21.394Z,1.40
2023-01-26T14:58:53.643Z,0.83
2023-01-26T15:01:22.576Z,1.00
2023-01-26T15:03:51.555Z,1.03
2023-01-26T15:06:21.334Z,1.17
2023-01-26T15:09:05.699Z,0.90
2023-01-26T15:11:51.584Z,1.30
2023-01-26T15:14:30.904Z,1.20
2023-01-26T15:16:58.565Z,0.90
2023-01-26T15:19:27.369Z,0.90
2023-01-26T15:21:54.981Z,1.30
2023-01-26T15:24:24.699Z,1.10
2023-01-26T15:26:52.209Z,1.03
2023-01-26T15:29:34.692Z,0.83
2023-01-26T15:32:02.894Z,1.10
2023-01-26T15:34:30.445Z,1.30
2023-01-26T15:36:58.733Z,1.10
2023-01-26T15:39:27.427Z,1.20
2023-01-26T15:42:14.544Z,1.07
2023-01-26T15:44:41.963Z,1.03
2023-01-26T15:50:16.350Z,0.90
2023-01-26T15:52:54.000Z,0.90
2023-01-26T15:55:22.583Z,0.90
2023-01-26T15:57:50.056Z,0.87
2023-01-26T16:00:17.793Z,1.10
2023-01-26T16:02:45.312Z,1.10
2023-01-26T16:05:24.914Z,1.10
2023-01-26T16:07:52.835Z,1.00
2023-01-26T16:10:20.399Z,1.00
2023-01-26T16:12:49.772Z,1.20
2023-01-26T16:15:26.877Z,1.30
2023-01-26T16:17:54.290Z,1.40
2023-01-26T16:20:21.964Z,1.10
2023-01-26T16:22:52.441Z,1.10
2023-01-26T16:25:27.431Z,1.27
2023-01-26T16:27:55.426Z,1.13
2023-01-26T16:30:23.348Z,1.00
2023-01-26T16:32:51.606Z,1.27
2023-01-26T16:35:21.176Z,1.10
2023-01-26T16:37:51.658Z,0.90
2023-01-26T16:40:19.938Z,1.50
2023-01-26T16:42:49.004Z,1.50
2023-01-26T16:45:17.826Z,1.30
2023-01-26T16:47:49.180Z,1.00
2023-01-26T16:50:16.734Z,1.33
2023-01-26T16:52:44.135Z,1.20
2023-01-26T16:55:13.948Z,1.20
2023-01-26T16:57:41.969Z,1.30
2023-01-26T17:00:19.707Z,1.43
2023-01-26T17:02:52.205Z,1.10
2023-01-26T17:05:23.398Z,0.77
2023-01-26T17:07:51.401Z,1.30
2023-01-26T17:10:22.392Z,1.00
2023-01-26T17:12:49.857Z,0.90
2023-01-26T17:15:17.486Z,1.00
2023-01-26T17:17:45.726Z,1.00
2023-01-26T17:20:19.365Z,1.03
2023-01-26T17:22:48.588Z,1.40
2023-01-26T17:25:17.657Z,1.33
2023-01-26T17:27:46.468Z,0.80
2023-01-26T17:30:14.100Z,1.37
2023-01-26T17:32:42.623Z,1.07
2023-01-26T17:35:10.697Z,1.00
2023-01-26T17:37:43.870Z,0.97
2023-01-26T17:40:11.834Z,1.00
2023-01-26T17:42:39.237Z,0.97
2023-01-26T17:45:08.038Z,0.97
2023-01-26T17:47:35.407Z,1.33
2023-01-26T17:50:05.352Z,1.30
2023-01-26T17:52:35.392Z,1.00
2023-01-26T17:55:05.196Z,1.00
2023-01-26T17:57:33.028Z,1.20
2023-01-26T18:00:00.386Z,1.40
2023-01-26T18:02:27.908Z,0.90
2023-01-26T18:04:55.672Z,1.00
2023-01-26T18:07:24.189Z,1.17
2023-01-26T18:09:51.740Z,1.20
2023-01-26T18:12:19.345Z,1.20
2023-01-26T18:14:48.398Z,0.90
2023-01-26T18:17:17.772Z,1.20
2023-01-26T18:19:45.121Z,1.20
2023-01-26T18:22:12.700Z,1.40
2023-01-26T18:24:40.373Z,1.57
2023-01-26T18:27:08.251Z,1.00
2023-01-26T18:29:36.398Z,1.53
2023-01-26T18:32:05.739Z,1.50
2023-01-26T18:34:33.242Z,1.20
2023-01-26T18:37:00.626Z,1.17
2023-01-26T18:39:29.006Z,1.10
2023-01-26T18:41:56.438Z,1.00
2023-01-26T18:44:27.168Z,1.43
2023-01-26T18:46:57.203Z,0.90
2023-01-26T18:49:24.683Z,1.37
2023-01-26T18:51:52.368Z,1.60
2023-01-26T18:54:20.151Z,1.00
2023-01-26T18:56:47.802Z,1.20
2023-01-26T18:59:15.216Z,1.20
2023-01-26T19:01:43.809Z,0.97
2023-01-26T19:04:11.222Z,0.83
2023-01-26T19:06:38.585Z,1.33
2023-01-26T19:09:07.131Z,1.30
2023-01-26T19:11:35.823Z,1.30
2023-01-26T19:14:03.889Z,1.40
2023-01-26T19:16:31.594Z,1.50
2023-01-26T19:18:59.195Z,1.30
2023-01-26T19:21:27.650Z,1.20
2023-01-26T19:23:56.541Z,2.17
2023-01-26T19:26:25.681Z,1.30
2023-01-26T19:28:54.229Z,1.20
2023-01-26T19:31:22.449Z,1.00
2023-01-26T19:33:50.700Z,0.93
2023-01-26T19:36:18.420Z,0.90
2023-01-26T19:38:46.174Z,1.33
2023-01-26T19:41:13.873Z,1.57
2023-01-26T19:43:41.866Z,1.10
2023-01-26T19:46:11.791Z,0.90
2023-01-26T19:48:39.630Z,1.40
2023-01-26T19:51:08.183Z,1.00
2023-01-26T19:53:36.873Z,1.63
2023-01-26T19:56:08.145Z,1.43
2023-01-26T19:58:37.046Z,1.40
2023-01-26T20:01:06.224Z,1.37
2023-01-26T20:03:34.036Z,1.20
2023-01-26T20:06:01.681Z,1.53
2023-01-26T20:08:29.603Z,1.87
2023-01-26T20:11:04.457Z,1.33
2023-01-26T20:13:32.051Z,1.43
2023-01-26T20:15:59.444Z,1.80
2023-01-26T20:18:26.764Z,1.10
2023-01-26T20:20:55.726Z,1.23
2023-01-26T20:23:23.812Z,1.10
2023-01-26T20:25:53.963Z,1.00
2023-01-26T20:28:21.266Z,0.93
2023-01-26T20:30:48.655Z,0.83
2023-01-26T20:33:17.507Z,1.00
2023-01-26T20:35:45.017Z,1.20
2023-01-26T20:38:12.437Z,1.00
2023-01-26T20:40:40.011Z,1.27
2023-01-26T20:43:07.293Z,1.07
2023-01-26T20:45:34.855Z,1.47
2023-01-26T20:48:02.257Z,1.20
2023-01-26T20:50:29.945Z,1.27
2023-01-26T20:52:57.274Z,1.30
2023-01-26T20:55:24.785Z,1.53
2023-01-26T20:57:52.244Z,1.23
2023-01-26T21:00:19.921Z,1.20
2023-01-26T21:02:47.374Z,1.30
2023-01-26T21:05:15.098Z,1.20
2023-01-26T21:07:42.613Z,1.90
2023-01-26T21:10:10.478Z,1.10
2023-01-26T21:12:38.012Z,1.37
2023-01-26T21:15:06.140Z,1.10
2023-01-26T21:17:33.652Z,1.57
2023-01-26T21:20:01.021Z,1.70
2023-01-26T21:22:28.611Z,1.10
2023-01-26T21:24:56.025Z,1.20
2023-01-26T21:27:23.524Z,1.70
2023-01-26T21:29:51.000Z,1.23
2023-01-26T21:32:19.247Z,1.47
2023-01-26T21:34:46.747Z,1.20
2023-01-26T21:37:14.077Z,1.50
2023-01-26T21:39:41.513Z,1.30
2023-01-26T21:42:08.857Z,1.53
2023-01-26T21:44:56.151Z,1.27
2023-01-26T21:47:23.668Z,1.23
2023-01-26T21:49:51.753Z,1.30
2023-01-26T21:52:37.731Z,1.33
2023-01-26T21:55:05.160Z,1.23
2023-01-26T21:57:51.239Z,1.10
2023-01-26T22:00:18.846Z,1.17
2023-01-26T22:02:46.922Z,1.33
2023-01-26T22:05:15.596Z,1.53
2023-01-26T22:07:42.961Z,1.00
2023-01-26T22:10:11.108Z,1.30
2023-01-26T22:12:38.704Z,0.90
2023-01-26T22:15:06.906Z,1.07
2023-01-26T22:17:34.610Z,1.77
2023-01-26T22:20:02.378Z,1.10
2023-01-26T22:22:29.915Z,1.60
2023-01-26T22:24:57.728Z,1.30
2023-01-26T22:27:25.380Z,1.10
2023-01-26T22:29:53.097Z,1.23
2023-01-26T22:32:23.167Z,1.00
2023-01-26T22:34:50.616Z,1.27
2023-01-26T22:37:22.738Z,0.90
2023-01-26T22:39:50.551Z,0.90
2023-01-26T22:42:19.346Z,1.20
2023-01-26T22:44:46.733Z,1.60
2023-01-26T22:47:14.185Z,1.07
2023-01-26T22:49:41.544Z,1.37
2023-01-26T22:52:09.612Z,1.20
2023-01-26T22:54:37.140Z,1.17
2023-01-26T22:57:04.594Z,1.50
2023-01-26T22:59:32.085Z,1.20
2023-01-26T23:01:59.445Z,1.20
2023-01-26T23:04:29.228Z,1.13
2023-01-26T23:06:56.590Z,1.33
2023-01-26T23:09:24.027Z,1.23
2023-01-26T23:12:02.494Z,1.23
2023-01-26T23:14:30.283Z,1.17
2023-01-26T23:16:58.125Z,0.93
2023-01-26T23:19:25.815Z,0.93
2023-01-26T23:21:53.208Z,1.33
2023-01-26T23:24:20.579Z,1.60
2023-01-26T23:26:48.255Z,1.40
2023-01-26T23:29:15.772Z,1.20
2023-01-26T23:31:43.213Z,1.73
2023-01-26T23:34:10.583Z,1.27
2023-01-26T23:36:37.939Z,1.50
2023-01-26T23:39:05.317Z,1.40
2023-01-26T23:41:34.895Z,2.07
2023-01-26T23:44:02.328Z,1.00
2023-01-26T23:46:32.180Z,1.27
2023-01-26T23:48:59.761Z,1.17
2023-01-26T23:51:27.118Z,1.27
2023-01-26T23:53:55.748Z,0.90
2023-01-26T23:56:23.047Z,1.33
2023-01-26T23:58:50.416Z,0.97
